SVA1567 OEJN-OERS
Flight info
| Callsign | SVA1567 |
|---|---|
| Flight time | N/A |
| Altitude | 36000 |
| Route | MIGDA L677 ORGIM |
| Aircraft | A320/M-SDE2E3FGHIRWY/L |
Departure
| Time | 2026-05-01 15:13 |
|---|---|
| Airport | King Abdulaziz International Airport (OEJN) |
Arrival
| Time | N/A |
|---|---|
| Airport | Red Sea International Airport (OERS) |
| Time | Latitude | Longitude | Altitude | Speed | Heading |
|---|---|---|---|---|---|
| 2026-05-01 14:40 | 21.66381 | 39.17506 | 31 ft | 0 kts | 225° |
| 2026-05-01 15:04 | 21.66393 | 39.17517 | 31 ft | 4 kts | 217° |
| 2026-05-01 15:05 | 21.66410 | 39.17528 | 31 ft | 4 kts | 205° |
| 2026-05-01 15:05 | 21.66435 | 39.17541 | 31 ft | 4 kts | 212° |
| 2026-05-01 15:05 | 21.66453 | 39.17558 | 31 ft | 4 kts | 250° |
| 2026-05-01 15:05 | 21.66455 | 39.17570 | 31 ft | 0 kts | 284° |
| 2026-05-01 15:10 | 21.66460 | 39.17552 | 31 ft | 6 kts | 284° |
| 2026-05-01 15:10 | 21.66495 | 39.17523 | 31 ft | 6 kts | 60° |
| 2026-05-01 15:10 | 21.66509 | 39.17584 | 31 ft | 8 kts | 68° |
| 2026-05-01 15:11 | 21.66531 | 39.17645 | 30 ft | 9 kts | 69° |
| 2026-05-01 15:11 | 21.66584 | 39.17798 | 30 ft | 20 kts | 70° |
| 2026-05-01 15:11 | 21.66631 | 39.17940 | 32 ft | 20 kts | 70° |
| 2026-05-01 15:12 | 21.66662 | 39.18034 | 32 ft | 4 kts | 60° |
| 2026-05-01 15:12 | 21.66735 | 39.18015 | 32 ft | 21 kts | 339° |
| 2026-05-01 15:12 | 21.67129 | 39.17860 | 31 ft | 98 kts | 340° |
| 2026-05-01 15:13 | 21.70259 | 39.16642 | 1257 ft | 179 kts | 343° |
| 2026-05-01 15:14 | 21.72830 | 39.16121 | 2362 ft | 197 kts | 353° |
| 2026-05-01 15:14 | 21.74246 | 39.16018 | 2876 ft | 209 kts | 357° |
| 2026-05-01 15:14 | 21.77192 | 39.16078 | 4249 ft | 219 kts | 349° |
| 2026-05-01 15:15 | 21.80203 | 39.14551 | 4978 ft | 264 kts | 327° |
| 2026-05-01 15:15 | 21.83466 | 39.12446 | 6461 ft | 279 kts | 329° |
| 2026-05-01 15:16 | 21.86957 | 39.10476 | 8088 ft | 287 kts | 332° |
| 2026-05-01 15:16 | 21.90596 | 39.08603 | 9622 ft | 296 kts | 333° |
| 2026-05-01 15:17 | 21.94483 | 39.06657 | 10530 ft | 328 kts | 333° |
| 2026-05-01 15:18 | 22.01182 | 39.03300 | 11841 ft | 368 kts | 333° |
| 2026-05-01 15:18 | 22.03516 | 39.02131 | 12548 ft | 372 kts | 333° |
| 2026-05-01 15:19 | 22.10644 | 38.98537 | 14630 ft | 382 kts | 333° |
| 2026-05-01 15:19 | 22.15486 | 38.96103 | 15943 ft | 388 kts | 333° |
| 2026-05-01 15:19 | 22.17942 | 38.94864 | 16568 ft | 391 kts | 333° |
| 2026-05-01 15:20 | 22.22910 | 38.92347 | 17813 ft | 398 kts | 333° |
| 2026-05-01 15:20 | 22.25426 | 38.91075 | 18423 ft | 401 kts | 333° |
| 2026-05-01 15:20 | 22.27961 | 38.89794 | 19015 ft | 404 kts | 333° |
| 2026-05-01 15:21 | 22.30520 | 38.88502 | 19593 ft | 407 kts | 333° |
| 2026-05-01 15:21 | 22.33098 | 38.87201 | 20162 ft | 411 kts | 333° |
| 2026-05-01 15:21 | 22.35699 | 38.85893 | 20708 ft | 414 kts | 333° |
| 2026-05-01 15:21 | 22.38319 | 38.84576 | 21225 ft | 417 kts | 333° |